Time;durP1;ratioP1;P1;durP2;ratioP2;P2;SDS_P1;SDS_P2;PMS_P1;PMS_P2;Temp;Humidity;BMP_temperature;BMP_pressure;BME280_temperature;BME280_humidity;BME280_pressure;Samples;Min_cycle;Max_cycle;Signal;HPM_P1;HPM_P2
2021/08/08 00:00:33;;;;;;;;;;;18.60;96.40;;;;;;5089114;28;20394;-82
2021/08/08 00:02:59;;;;;;;;;;;18.60;96.50;;;;;;5090927;28;19912;-82
2021/08/08 00:05:24;;;;;;;;;;;18.50;96.50;;;;;;5090493;28;20002;-82
2021/08/08 00:07:50;;;;;;;;;;;18.50;96.60;;;;;;5091008;28;20281;-82
2021/08/08 00:10:15;;;;;;;;;;;18.50;96.70;;;;;;5090411;28;19909;-82
2021/08/08 00:12:41;;;;;;;;;;;18.50;97.10;;;;;;5090754;28;19909;-82
2021/08/08 00:15:08;;;;;;;;;;;18.50;97.40;;;;;;5090548;28;20002;-82
2021/08/08 00:17:33;;;;;;;;;;;18.40;97.60;;;;;;5078515;28;19908;-82
2021/08/08 00:19:59;;;;;;;;;;;18.40;97.70;;;;;;5076476;28;19954;-82
2021/08/08 00:22:24;;;;;;;;;;;18.30;97.70;;;;;;5077034;28;20298;-82
2021/08/08 00:24:50;;;;;;;;;;;18.40;97.80;;;;;;5076870;28;19920;-82
2021/08/08 00:27:15;;;;;;;;;;;18.30;97.90;;;;;;5076713;28;20366;-82
2021/08/08 00:29:41;;;;;;;;;;;18.30;97.90;;;;;;5076341;28;19912;-82
2021/08/08 00:32:06;;;;;;;;;;;18.30;98.00;;;;;;5076245;28;19932;-82
2021/08/08 00:34:32;;;;;;;;;;;18.30;98.10;;;;;;5076551;28;19909;-83
2021/08/08 00:36:58;;;;;;;;;;;18.30;98.20;;;;;;5077126;28;20038;-82
2021/08/08 00:39:25;;;;;;;;;;;18.30;98.20;;;;;;5075631;28;20423;-82
2021/08/08 00:41:51;;;;;;;;;;;18.20;98.50;;;;;;5076173;28;20416;-82
2021/08/08 00:44:16;;;;;;;;;;;18.30;98.20;;;;;;5076527;28;19912;-82
2021/08/08 00:46:41;;;;;;;;;;;18.30;98.20;;;;;;5076640;28;19915;-82
2021/08/08 00:49:07;;;;;;;;;;;18.30;98.30;;;;;;5075859;28;19912;-82
2021/08/08 00:51:33;;;;;;;;;;;18.30;98.20;;;;;;5076800;28;19977;-82
2021/08/08 00:53:59;;;;;;;;;;;18.30;98.20;;;;;;5074795;28;19969;-82
2021/08/08 00:56:24;;;;;;;;;;;18.30;98.30;;;;;;5075316;28;19912;-82
2021/08/08 00:58:50;;;;;;;;;;;18.30;98.30;;;;;;5076001;28;19916;-83
2021/08/08 01:01:16;;;;;;;;;;;18.30;98.30;;;;;;5075227;28;19961;-82
2021/08/08 01:03:43;;;;;;;;;;;18.30;98.40;;;;;;5076250;28;19908;-82
2021/08/08 01:06:12;;;;;;;;;;;18.30;98.30;;;;;;5074842;28;19999;-82
2021/08/08 01:08:41;;;;;;;;;;;18.30;98.30;;;;;;5076011;28;19915;-82
2021/08/08 01:11:07;;;;;;;;;;;18.20;98.30;;;;;;5073958;28;20304;-82
2021/08/08 01:13:33;;;;;;;;;;;18.20;98.30;;;;;;5075966;28;19908;-82
2021/08/08 01:15:59;;;;;;;;;;;18.30;98.10;;;;;;5075993;28;19923;-82
2021/08/08 01:18:25;;;;;;;;;;;18.30;98.00;;;;;;5074609;28;19916;-82
2021/08/08 01:20:50;;;;;;;;;;;18.30;98.00;;;;;;5075482;28;19947;-82
2021/08/08 01:23:17;;;;;;;;;;;18.30;98.10;;;;;;5075975;28;19916;-82
2021/08/08 01:25:44;;;;;;;;;;;18.30;98.10;;;;;;5075847;28;19920;-82
2021/08/08 01:28:10;;;;;;;;;;;18.30;98.00;;;;;;5074226;28;19908;-82
2021/08/08 01:30:35;;;;;;;;;;;18.30;97.90;;;;;;5073793;28;19942;-82
2021/08/08 01:33:05;;;;;;;;;;;18.30;97.80;;;;;;5074546;28;20003;-82
2021/08/08 01:35:31;;;;;;;;;;;18.30;97.90;;;;;;5075547;28;19908;-82
2021/08/08 01:37:56;;;;;;;;;;;18.30;97.90;;;;;;5075306;28;19962;-82
2021/08/08 01:40:39;;;;;;;;;;;18.30;97.70;;;;;;5074777;28;19909;-82
2021/08/08 01:43:09;;;;;;;;;;;18.30;97.70;;;;;;5075535;28;19943;-82
2021/08/08 01:45:37;;;;;;;;;;;18.30;97.60;;;;;;5075379;28;20328;-82
2021/08/08 01:48:04;;;;;;;;;;;18.30;97.70;;;;;;5074086;28;19909;-83
2021/08/08 01:50:33;;;;;;;;;;;18.30;97.60;;;;;;5073703;28;20061;-82
2021/08/08 01:52:59;;;;;;;;;;;18.30;97.60;;;;;;5075565;28;20177;-82
2021/08/08 01:55:25;;;;;;;;;;;18.40;97.50;;;;;;5073790;28;20393;-82
2021/08/08 01:57:51;;;;;;;;;;;18.40;97.40;;;;;;5075252;28;19909;-82
2021/08/08 02:00:19;;;;;;;;;;;18.30;97.60;;;;;;5074880;28;19919;-82
2021/08/08 02:02:51;;;;;;;;;;;18.30;98.00;;;;;;5073644;28;19908;-82
2021/08/08 02:05:18;;;;;;;;;;;18.30;97.80;;;;;;5073563;28;19970;-82
2021/08/08 02:07:44;;;;;;;;;;;18.30;98.00;;;;;;5073761;28;20349;-82
2021/08/08 02:10:09;;;;;;;;;;;18.30;97.80;;;;;;5073086;28;19996;-82
2021/08/08 02:12:35;;;;;;;;;;;18.30;97.50;;;;;;5074904;28;19908;-82
2021/08/08 02:15:00;;;;;;;;;;;18.30;97.40;;;;;;5073855;28;19973;-82
2021/08/08 02:17:26;;;;;;;;;;;18.20;97.40;;;;;;5073228;28;19909;-82
2021/08/08 02:19:51;;;;;;;;;;;18.20;97.50;;;;;;5072599;28;19915;-83
2021/08/08 02:22:17;;;;;;;;;;;18.20;97.20;;;;;;5073278;28;19966;-82
2021/08/08 02:24:42;;;;;;;;;;;18.10;97.40;;;;;;5073821;28;19916;-82
2021/08/08 02:27:08;;;;;;;;;;;18.20;97.10;;;;;;5074571;28;20363;-82
2021/08/08 02:29:33;;;;;;;;;;;18.10;97.20;;;;;;5074046;28;19919;-83
2021/08/08 02:31:59;;;;;;;;;;;18.10;97.20;;;;;;5073025;28;19909;-82
2021/08/08 02:34:24;;;;;;;;;;;18.20;96.90;;;;;;5073273;28;19908;-82
2021/08/08 02:36:50;;;;;;;;;;;18.10;96.80;;;;;;5073258;28;19909;-83
2021/08/08 02:39:15;;;;;;;;;;;18.10;96.80;;;;;;5073815;28;20362;-83
2021/08/08 02:41:41;;;;;;;;;;;18.10;96.90;;;;;;5073019;28;19915;-83
2021/08/08 02:44:06;;;;;;;;;;;18.10;96.90;;;;;;5072898;28;19908;-82
2021/08/08 02:46:32;;;;;;;;;;;18.10;96.90;;;;;;5074596;28;20420;-82
2021/08/08 02:48:57;;;;;;;;;;;18.10;96.80;;;;;;5072259;28;19948;-82
2021/08/08 02:51:23;;;;;;;;;;;18.10;96.80;;;;;;5074646;28;19909;-82
2021/08/08 02:53:48;;;;;;;;;;;18.10;96.70;;;;;;5074348;28;19908;-82
2021/08/08 02:56:14;;;;;;;;;;;18.10;96.70;;;;;;5073437;28;19913;-82
2021/08/08 02:58:40;;;;;;;;;;;18.10;96.60;;;;;;5073216;28;20374;-82
2021/08/08 03:01:07;;;;;;;;;;;18.10;96.70;;;;;;5073738;28;20289;-82
2021/08/08 03:03:33;;;;;;;;;;;18.10;96.50;;;;;;5072931;28;19908;-83
2021/08/08 03:05:59;;;;;;;;;;;18.10;96.30;;;;;;5074194;28;19912;-82
2021/08/08 03:08:25;;;;;;;;;;;18.00;96.40;;;;;;5074683;28;19909;-82
2021/08/08 03:10:50;;;;;;;;;;;18.00;96.40;;;;;;5073738;28;19915;-82
2021/08/08 03:13:16;;;;;;;;;;;18.00;96.40;;;;;;5074170;28;20464;-82
2021/08/08 03:15:41;;;;;;;;;;;18.00;96.30;;;;;;5073833;28;19923;-82
2021/08/08 03:18:07;;;;;;;;;;;18.00;96.40;;;;;;5074241;28;20381;-82
2021/08/08 03:20:33;;;;;;;;;;;17.90;96.50;;;;;;5073447;28;20359;-82
2021/08/08 03:22:58;;;;;;;;;;;17.90;96.70;;;;;;5072457;28;19916;-82
2021/08/08 03:25:24;;;;;;;;;;;17.90;96.70;;;;;;5074259;28;19922;-82
2021/08/08 03:27:50;;;;;;;;;;;17.90;96.60;;;;;;5074068;28;19908;-83
2021/08/08 03:30:16;;;;;;;;;;;17.90;96.40;;;;;;5073397;28;20429;-83
2021/08/08 03:32:42;;;;;;;;;;;18.00;96.40;;;;;;5072604;28;19936;-82
2021/08/08 03:35:08;;;;;;;;;;;17.90;96.30;;;;;;5073999;28;20290;-83
2021/08/08 03:37:33;;;;;;;;;;;17.90;96.30;;;;;;5072552;28;19997;-82
2021/08/08 03:39:59;;;;;;;;;;;17.90;96.40;;;;;;5072096;28;19915;-83
2021/08/08 03:42:24;;;;;;;;;;;17.90;96.40;;;;;;5073808;28;19919;-82
2021/08/08 03:44:52;;;;;;;;;;;17.90;96.40;;;;;;5072633;28;19913;-82
2021/08/08 03:47:18;;;;;;;;;;;17.90;96.50;;;;;;5073831;28;19913;-82
2021/08/08 03:49:43;;;;;;;;;;;17.80;96.60;;;;;;5073003;28;19947;-82
2021/08/08 03:52:09;;;;;;;;;;;17.80;96.70;;;;;;5075961;28;19915;-82
2021/08/08 03:54:34;;;;;;;;;;;17.80;96.80;;;;;;5079366;28;20117;-82
2021/08/08 03:57:00;;;;;;;;;;;17.80;96.80;;;;;;5077289;28;19917;-82
2021/08/08 03:59:28;;;;;;;;;;;17.80;96.80;;;;;;5075763;28;20257;-82
2021/08/08 04:01:53;;;;;;;;;;;17.80;96.60;;;;;;5075982;28;20294;-82
2021/08/08 04:04:19;;;;;;;;;;;17.80;96.70;;;;;;5077301;28;19908;-82
2021/08/08 04:06:44;;;;;;;;;;;17.70;96.80;;;;;;5076310;28;19919;-82
2021/08/08 04:09:10;;;;;;;;;;;17.70;96.90;;;;;;5076806;28;20073;-82
2021/08/08 04:11:36;;;;;;;;;;;17.70;97.00;;;;;;5076176;28;19908;-82
2021/08/08 04:14:02;;;;;;;;;;;17.70;97.10;;;;;;5075912;28;20316;-82
2021/08/08 04:16:27;;;;;;;;;;;17.70;97.00;;;;;;5076610;28;19928;-83
2021/08/08 04:18:53;;;;;;;;;;;17.70;96.80;;;;;;5075950;28;19909;-82
2021/08/08 04:21:18;;;;;;;;;;;17.70;97.00;;;;;;5078581;28;19909;-82
2021/08/08 04:23:44;;;;;;;;;;;17.70;96.90;;;;;;5077562;28;19920;-82
2021/08/08 04:26:09;;;;;;;;;;;17.70;97.10;;;;;;5077289;28;19947;-83
2021/08/08 04:28:39;;;;;;;;;;;17.70;97.10;;;;;;5079787;28;19916;-82
2021/08/08 04:31:08;;;;;;;;;;;17.70;97.00;;;;;;5076042;28;19912;-82
2021/08/08 04:33:37;;;;;;;;;;;17.70;96.90;;;;;;5078230;28;20512;-82
2021/08/08 04:36:03;;;;;;;;;;;17.70;97.00;;;;;;5076471;28;19915;-82
2021/08/08 04:38:29;;;;;;;;;;;17.70;96.90;;;;;;5076619;28;19908;-82
2021/08/08 04:40:55;;;;;;;;;;;17.70;96.90;;;;;;5075879;28;20282;-82
2021/08/08 04:43:20;;;;;;;;;;;17.70;96.80;;;;;;5076942;28;19908;-82
2021/08/08 04:45:46;;;;;;;;;;;17.70;96.90;;;;;;5076997;28;19913;-82
2021/08/08 04:48:11;;;;;;;;;;;17.70;96.70;;;;;;5075407;28;19912;-82
2021/08/08 04:50:37;;;;;;;;;;;17.60;96.70;;;;;;5076371;28;19912;-82
2021/08/08 04:53:02;;;;;;;;;;;17.60;96.70;;;;;;5077014;28;19909;-82
2021/08/08 04:55:28;;;;;;;;;;;17.60;96.70;;;;;;5077179;28;19924;-82
2021/08/08 04:57:53;;;;;;;;;;;17.60;96.80;;;;;;5076554;28;19936;-82
2021/08/08 05:00:19;;;;;;;;;;;17.60;96.70;;;;;;5074761;28;20002;-83
2021/08/08 05:02:45;;;;;;;;;;;17.60;96.60;;;;;;5074803;28;19918;-82
2021/08/08 05:05:11;;;;;;;;;;;17.60;96.60;;;;;;5076514;28;19919;-82
2021/08/08 05:07:38;;;;;;;;;;;17.60;96.80;;;;;;5076170;28;19909;-82
2021/08/08 05:10:05;;;;;;;;;;;17.60;96.70;;;;;;5075962;28;19974;-83
2021/08/08 05:12:31;;;;;;;;;;;17.60;96.80;;;;;;5076307;28;19908;-82
2021/08/08 05:14:56;;;;;;;;;;;17.60;96.80;;;;;;5076870;28;19919;-82
2021/08/08 05:17:22;;;;;;;;;;;17.60;96.90;;;;;;5076347;28;19909;-82
2021/08/08 05:19:47;;;;;;;;;;;17.60;96.90;;;;;;5075668;28;19908;-82
2021/08/08 05:22:13;;;;;;;;;;;17.60;96.90;;;;;;5076047;28;19947;-82
2021/08/08 05:24:38;;;;;;;;;;;17.60;96.80;;;;;;5074610;28;20286;-82
2021/08/08 05:27:04;;;;;;;;;;;17.60;96.90;;;;;;5074795;28;19919;-82
2021/08/08 05:29:29;;;;;;;;;;;17.60;97.10;;;;;;5076129;28;19958;-83
2021/08/08 05:31:55;;;;;;;;;;;17.60;97.00;;;;;;5078060;28;19915;-83
2021/08/08 05:34:20;;;;;;;;;;;17.60;97.10;;;;;;5078459;28;19908;-83
2021/08/08 05:36:46;;;;;;;;;;;17.60;97.00;;;;;;5076265;28;19908;-83
2021/08/08 05:39:11;;;;;;;;;;;17.60;97.00;;;;;;5076415;28;19908;-83
2021/08/08 05:41:36;;;;;;;;;;;17.60;97.10;;;;;;5077570;28;19916;-83
2021/08/08 05:44:02;;;;;;;;;;;17.60;97.10;;;;;;5076545;28;19909;-83
2021/08/08 05:46:28;;;;;;;;;;;17.60;97.20;;;;;;5076379;28;19916;-83
2021/08/08 05:48:53;;;;;;;;;;;17.60;97.20;;;;;;5076560;28;19908;-83
2021/08/08 05:51:18;;;;;;;;;;;17.60;97.20;;;;;;5077612;28;19909;-83
2021/08/08 05:53:44;;;;;;;;;;;17.50;97.20;;;;;;5075272;28;20007;-83
2021/08/08 05:56:09;;;;;;;;;;;17.50;97.30;;;;;;5075662;28;20058;-83
2021/08/08 05:58:35;;;;;;;;;;;17.50;97.30;;;;;;5076651;28;19931;-83
2021/08/08 06:01:00;;;;;;;;;;;17.50;97.30;;;;;;5075003;28;19916;-83
2021/08/08 06:03:26;;;;;;;;;;;17.50;97.30;;;;;;5076718;28;19908;-83
2021/08/08 06:05:51;;;;;;;;;;;17.60;97.40;;;;;;5077381;28;20336;-83
2021/08/08 06:08:17;;;;;;;;;;;17.60;97.30;;;;;;5077098;28;19913;-83
2021/08/08 06:10:43;;;;;;;;;;;17.60;97.20;;;;;;5075221;28;19915;-83
2021/08/08 06:13:09;;;;;;;;;;;17.60;97.00;;;;;;5075599;28;19909;-83
2021/08/08 06:15:34;;;;;;;;;;;17.60;97.00;;;;;;5076132;28;19927;-83
2021/08/08 06:18:00;;;;;;;;;;;17.50;97.00;;;;;;5075650;28;19908;-83
2021/08/08 06:20:25;;;;;;;;;;;17.50;97.00;;;;;;5073669;28;19912;-83
2021/08/08 06:22:51;;;;;;;;;;;17.50;97.30;;;;;;5075533;28;19913;-83
2021/08/08 06:25:16;;;;;;;;;;;17.50;97.00;;;;;;5074759;28;20007;-83
2021/08/08 06:27:42;;;;;;;;;;;17.50;97.10;;;;;;5076771;28;19909;-83
2021/08/08 06:30:08;;;;;;;;;;;17.50;97.20;;;;;;5074187;28;19999;-83
2021/08/08 06:32:34;;;;;;;;;;;17.50;97.20;;;;;;5074818;28;19916;-82
2021/08/08 06:34:59;;;;;;;;;;;17.50;97.10;;;;;;5075501;28;20370;-83
2021/08/08 06:37:25;;;;;;;;;;;17.50;97.00;;;;;;5074991;28;20370;-83
2021/08/08 06:39:50;;;;;;;;;;;17.60;97.00;;;;;;5074737;28;19909;-83
2021/08/08 06:42:16;;;;;;;;;;;17.50;97.00;;;;;;5075701;28;19909;-83
2021/08/08 06:44:41;;;;;;;;;;;17.50;97.10;;;;;;5073968;28;20279;-83
2021/08/08 06:47:07;;;;;;;;;;;17.50;97.00;;;;;;5075995;28;20009;-83
2021/08/08 06:49:32;;;;;;;;;;;17.50;97.00;;;;;;5074588;28;20058;-83
2021/08/08 06:51:58;;;;;;;;;;;17.50;97.00;;;;;;5076502;28;20301;-83
2021/08/08 06:54:23;;;;;;;;;;;17.60;97.10;;;;;;5076190;28;19970;-83
2021/08/08 06:56:49;;;;;;;;;;;17.60;97.00;;;;;;5076659;28;19909;-83
2021/08/08 06:59:14;;;;;;;;;;;17.60;97.00;;;;;;5073718;28;19909;-83
2021/08/08 07:01:40;;;;;;;;;;;17.60;97.00;;;;;;5076367;28;19916;-83
2021/08/08 07:04:05;;;;;;;;;;;17.70;96.90;;;;;;5074841;28;20326;-83
2021/08/08 07:06:31;;;;;;;;;;;17.70;96.70;;;;;;5073971;28;19912;-83
2021/08/08 07:08:56;;;;;;;;;;;17.80;96.60;;;;;;5075309;28;20394;-83
2021/08/08 07:11:22;;;;;;;;;;;17.90;96.50;;;;;;5076100;28;19908;-83
2021/08/08 07:13:47;;;;;;;;;;;17.90;96.40;;;;;;5075549;28;19908;-83
2021/08/08 07:16:13;;;;;;;;;;;18.00;96.30;;;;;;5075266;28;20455;-83
2021/08/08 07:18:39;;;;;;;;;;;18.00;96.30;;;;;;5074603;28;19915;-83
2021/08/08 07:21:04;;;;;;;;;;;18.00;96.20;;;;;;5073478;28;20294;-83
2021/08/08 07:23:29;;;;;;;;;;;18.10;96.10;;;;;;5073813;28;19959;-83
2021/08/08 07:25:55;;;;;;;;;;;18.10;96.10;;;;;;5072974;28;19966;-83
2021/08/08 07:28:21;;;;;;;;;;;18.10;96.20;;;;;;5076508;28;19908;-83
2021/08/08 07:30:46;;;;;;;;;;;18.10;96.10;;;;;;5078030;28;19913;-83
2021/08/08 07:33:11;;;;;;;;;;;18.20;96.10;;;;;;5078201;28;20299;-83
2021/08/08 07:35:40;;;;;;;;;;;18.20;95.70;;;;;;5078934;28;19909;-83
2021/08/08 07:38:05;;;;;;;;;;;18.20;95.60;;;;;;5077445;28;20298;-83
2021/08/08 07:40:31;;;;;;;;;;;18.20;95.60;;;;;;5077546;28;19908;-83
2021/08/08 07:42:57;;;;;;;;;;;18.20;95.70;;;;;;5077113;28;19908;-83
2021/08/08 07:45:22;;;;;;;;;;;18.20;95.80;;;;;;5077133;28;19935;-83
2021/08/08 07:47:48;;;;;;;;;;;18.30;95.10;;;;;;5078463;28;19940;-83
2021/08/08 07:50:13;;;;;;;;;;;18.30;94.90;;;;;;5078157;28;19927;-83
2021/08/08 07:52:39;;;;;;;;;;;18.20;94.10;;;;;;5078071;28;19983;-83
2021/08/08 07:55:05;;;;;;;;;;;18.20;94.20;;;;;;5076667;28;20385;-83
2021/08/08 07:57:30;;;;;;;;;;;18.20;94.10;;;;;;5076889;28;19908;-83
2021/08/08 07:59:56;;;;;;;;;;;18.20;94.10;;;;;;5077785;28;19947;-83
2021/08/08 08:02:21;;;;;;;;;;;18.20;94.20;;;;;;5078241;28;19908;-83
2021/08/08 08:04:47;;;;;;;;;;;18.20;94.30;;;;;;5078069;28;19946;-83
2021/08/08 08:07:12;;;;;;;;;;;18.20;94.50;;;;;;5077268;28;20480;-83
2021/08/08 08:09:38;;;;;;;;;;;18.30;94.60;;;;;;5076207;28;19908;-83
2021/08/08 08:12:03;;;;;;;;;;;18.30;94.70;;;;;;5078461;28;20450;-83
2021/08/08 08:14:29;;;;;;;;;;;18.30;94.90;;;;;;5077968;28;19909;-83
2021/08/08 08:16:55;;;;;;;;;;;18.40;94.40;;;;;;5076402;28;19960;-83
2021/08/08 08:19:20;;;;;;;;;;;18.40;94.10;;;;;;5077123;28;19909;-83
2021/08/08 08:21:47;;;;;;;;;;;18.50;93.50;;;;;;5078266;28;19912;-83
2021/08/08 08:24:13;;;;;;;;;;;18.50;93.10;;;;;;5078049;28;19912;-83
2021/08/08 08:26:38;;;;;;;;;;;18.50;92.80;;;;;;5076711;28;20260;-83
2021/08/08 08:29:05;;;;;;;;;;;18.50;92.60;;;;;;5076810;28;19919;-83
2021/08/08 08:31:31;;;;;;;;;;;18.50;92.90;;;;;;5077794;28;20014;-83
2021/08/08 08:33:56;;;;;;;;;;;18.50;93.10;;;;;;5076270;28;19956;-83
2021/08/08 08:36:22;;;;;;;;;;;18.50;93.40;;;;;;5077532;28;19930;-83
2021/08/08 08:38:47;;;;;;;;;;;18.40;93.30;;;;;;5076772;28;20259;-83
2021/08/08 08:41:14;;;;;;;;;;;18.50;92.80;;;;;;5077490;28;20275;-83
2021/08/08 08:43:39;;;;;;;;;;;18.50;92.60;;;;;;5078923;28;19908;-83
2021/08/08 08:46:05;;;;;;;;;;;18.40;92.60;;;;;;5078429;28;19913;-83
2021/08/08 08:48:31;;;;;;;;;;;18.40;92.70;;;;;;5075408;28;19999;-83
2021/08/08 08:50:58;;;;;;;;;;;18.40;92.80;;;;;;5075284;28;19909;-83
2021/08/08 08:53:23;;;;;;;;;;;18.40;92.50;;;;;;5076763;28;19908;-83
2021/08/08 08:55:50;;;;;;;;;;;18.40;92.70;;;;;;5077036;28;19915;-83
2021/08/08 08:58:16;;;;;;;;;;;18.40;92.70;;;;;;5077312;28;19909;-83
2021/08/08 09:00:42;;;;;;;;;;;18.40;92.80;;;;;;5075494;28;19958;-83
2021/08/08 09:03:07;;;;;;;;;;;18.50;93.20;;;;;;5077348;28;19912;-83
2021/08/08 09:05:33;;;;;;;;;;;18.50;93.30;;;;;;5076152;28;19966;-83
2021/08/08 09:07:58;;;;;;;;;;;18.50;93.40;;;;;;5077101;28;19908;-83
2021/08/08 09:10:24;;;;;;;;;;;18.60;93.20;;;;;;5075213;28;19959;-83
2021/08/08 09:13:00;;;;;;;;;;;18.70;92.70;;;;;;5076380;28;19915;-83
2021/08/08 09:15:36;;;;;;;;;;;18.70;93.00;;;;;;5076426;28;20408;-83
2021/08/08 09:18:18;;;;;;;;;;;18.80;93.10;;;;;;5076494;28;19909;-83
2021/08/08 09:20:45;;;;;;;;;;;18.80;92.70;;;;;;5074200;28;20106;-83
2021/08/08 09:23:11;;;;;;;;;;;18.80;92.40;;;;;;5075437;28;19909;-83
2021/08/08 09:25:38;;;;;;;;;;;18.80;91.60;;;;;;5077475;28;20371;-83
2021/08/08 09:28:07;;;;;;;;;;;18.80;91.90;;;;;;5075032;28;19930;-83
2021/08/08 09:30:35;;;;;;;;;;;18.80;91.40;;;;;;5075668;28;20416;-83
2021/08/08 09:33:01;;;;;;;;;;;18.80;91.50;;;;;;5074526;28;20188;-83
2021/08/08 09:35:31;;;;;;;;;;;18.80;91.60;;;;;;5075622;28;19908;-83
2021/08/08 09:37:58;;;;;;;;;;;18.80;91.50;;;;;;5076605;28;19924;-83
2021/08/08 09:40:24;;;;;;;;;;;18.90;91.80;;;;;;5075699;28;20358;-83
2021/08/08 09:42:50;;;;;;;;;;;18.90;91.90;;;;;;5074471;28;19909;-83
2021/08/08 09:45:17;;;;;;;;;;;18.90;91.80;;;;;;5074885;28;19912;-83
2021/08/08 09:47:45;;;;;;;;;;;19.00;91.70;;;;;;5074564;28;20375;-83
2021/08/08 09:50:12;;;;;;;;;;;19.00;91.90;;;;;;5072913;28;19912;-83
2021/08/08 09:52:39;;;;;;;;;;;19.10;92.10;;;;;;5074461;28;19908;-83
2021/08/08 09:55:26;;;;;;;;;;;19.20;91.60;;;;;;5074711;28;19942;-83
2021/08/08 09:57:52;;;;;;;;;;;19.30;91.60;;;;;;5075935;28;19942;-83
2021/08/08 10:00:23;;;;;;;;;;;19.40;91.60;;;;;;5075203;28;19939;-82
2021/08/08 10:02:49;;;;;;;;;;;19.50;91.40;;;;;;5075595;28;19912;-83
2021/08/08 10:05:14;;;;;;;;;;;19.50;90.90;;;;;;5073853;28;20363;-83
2021/08/08 10:07:40;;;;;;;;;;;19.50;90.90;;;;;;5075882;28;19909;-83
2021/08/08 10:10:06;;;;;;;;;;;19.50;90.70;;;;;;5074767;28;20343;-83
2021/08/08 10:12:47;;;;;;;;;;;19.40;91.00;;;;;;5075551;28;19963;-83
2021/08/08 10:15:12;;;;;;;;;;;19.40;90.70;;;;;;5076018;28;19916;-83
2021/08/08 10:17:39;;;;;;;;;;;19.40;91.00;;;;;;5073799;28;19914;-83
2021/08/08 10:20:05;;;;;;;;;;;19.40;91.00;;;;;;5074939;28;19913;-83
2021/08/08 10:22:32;;;;;;;;;;;19.40;90.70;;;;;;5074959;28;19970;-83
2021/08/08 10:24:58;;;;;;;;;;;19.40;90.40;;;;;;5074849;28;19919;-83
2021/08/08 10:27:25;;;;;;;;;;;19.40;90.40;;;;;;5075317;28;19912;-83
2021/08/08 10:29:51;;;;;;;;;;;19.30;90.60;;;;;;5074728;28;19943;-83
2021/08/08 10:32:17;;;;;;;;;;;19.30;90.70;;;;;;5073834;28;20000;-83
2021/08/08 10:34:42;;;;;;;;;;;19.30;90.40;;;;;;5073517;28;19915;-83
2021/08/08 10:37:12;;;;;;;;;;;19.30;90.60;;;;;;5073270;28;20286;-83
2021/08/08 10:39:42;;;;;;;;;;;19.30;90.60;;;;;;5075092;28;20365;-83
2021/08/08 10:42:08;;;;;;;;;;;19.30;90.60;;;;;;5075947;28;19908;-83
2021/08/08 10:44:44;;;;;;;;;;;19.30;90.70;;;;;;5075795;28;20462;-83
2021/08/08 10:47:09;;;;;;;;;;;19.30;90.80;;;;;;5076075;28;20424;-83
2021/08/08 10:49:35;;;;;;;;;;;19.40;90.80;;;;;;5075920;28;19909;-83
2021/08/08 10:52:01;;;;;;;;;;;19.50;90.20;;;;;;5077024;28;19909;-83
2021/08/08 10:54:27;;;;;;;;;;;19.60;89.70;;;;;;5074710;28;19915;-83
2021/08/08 10:56:53;;;;;;;;;;;19.70;89.90;;;;;;5076786;28;19912;-83
2021/08/08 10:59:23;;;;;;;;;;;19.80;90.10;;;;;;5075592;28;19909;-83
2021/08/08 11:02:24;;;;;;;;;;;19.80;89.10;;;;;;5076334;28;19915;-83
2021/08/08 11:04:50;;;;;;;;;;;19.80;88.30;;;;;;5094443;28;19951;-83
2021/08/08 11:07:17;;;;;;;;;;;19.70;88.60;;;;;;5074799;28;20254;-83
2021/08/08 11:09:43;;;;;;;;;;;19.70;89.70;;;;;;5073442;28;20393;-83
2021/08/08 11:12:09;;;;;;;;;;;19.70;89.60;;;;;;5074619;28;19909;-83
2021/08/08 11:14:34;;;;;;;;;;;19.70;89.80;;;;;;5075898;28;20374;-83
2021/08/08 11:17:01;;;;;;;;;;;19.70;89.70;;;;;;5076625;28;19947;-83
2021/08/08 11:19:53;;;;;;;;;;;19.70;89.30;;;;;;5074596;28;19908;-83
2021/08/08 11:22:19;;;;;;;;;;;19.60;89.00;;;;;;5074931;28;19908;-83
2021/08/08 11:24:54;;;;;;;;;;;19.60;90.00;;;;;;5075034;28;19947;-83
2021/08/08 11:29:51;;;;;;;;;;;19.60;88.00;;;;;;5077229;22;19974;-88
2021/08/08 11:32:16;;;;;;;;;;;19.70;87.10;;;;;;5053264;28;19920;-88
2021/08/08 11:34:42;;;;;;;;;;;19.70;87.80;;;;;;5052877;28;19908;-88
2021/08/08 11:37:07;;;;;;;;;;;19.70;88.40;;;;;;5054264;28;19908;-88
2021/08/08 11:39:34;;;;;;;;;;;19.60;89.00;;;;;;5054189;28;20058;-88
2021/08/08 11:42:07;;;;;;;;;;;19.70;89.20;;;;;;5054075;28;19909;-88
2021/08/08 11:44:37;;;;;;;;;;;19.70;88.70;;;;;;5054042;28;20381;-88
2021/08/08 11:47:03;;;;;;;;;;;19.70;89.10;;;;;;5053977;28;19908;-88
2021/08/08 11:49:30;;;;;;;;;;;19.70;89.70;;;;;;5054234;28;20362;-89
2021/08/08 11:52:00;;;;;;;;;;;19.70;88.90;;;;;;5052681;28;19996;-88
2021/08/08 11:54:33;;;;;;;;;;;19.70;88.90;;;;;;5052755;28;19980;-88
2021/08/08 11:56:59;;;;;;;;;;;19.60;89.80;;;;;;5052597;28;19908;-88
2021/08/08 11:59:26;;;;;;;;;;;19.60;90.10;;;;;;5052162;28;20015;-88
2021/08/08 12:01:58;;;;;;;;;;;19.60;88.80;;;;;;5053441;28;19944;-88
2021/08/08 12:04:23;;;;;;;;;;;19.70;88.30;;;;;;5052135;28;19909;-88
2021/08/08 12:06:49;;;;;;;;;;;19.80;88.80;;;;;;5051948;28;19939;-89
2021/08/08 12:09:14;;;;;;;;;;;19.80;88.30;;;;;;5051461;28;19915;-88
2021/08/08 12:11:53;;;;;;;;;;;19.70;88.70;;;;;;5052251;28;19930;-88
2021/08/08 12:14:35;;;;;;;;;;;19.70;90.90;;;;;;5055348;28;19952;-88
2021/08/08 12:17:02;;;;;;;;;;;19.50;91.80;;;;;;5055795;28;19992;-88
2021/08/08 12:19:29;;;;;;;;;;;19.40;92.30;;;;;;5055562;28;19909;-88
2021/08/08 12:22:00;;;;;;;;;;;19.40;93.10;;;;;;5057435;28;19974;-89
2021/08/08 12:24:30;;;;;;;;;;;19.30;94.10;;;;;;5072758;28;20306;-88
2021/08/08 12:26:56;;;;;;;;;;;19.40;94.60;;;;;;5055737;28;19974;-88
2021/08/08 12:29:28;;;;;;;;;;;19.50;94.90;;;;;;5056217;28;20362;-88
2021/08/08 12:32:03;;;;;;;;;;;19.60;94.70;;;;;;5056029;28;20004;-88
2021/08/08 12:34:32;;;;;;;;;;;19.70;94.40;;;;;;5055842;28;20086;-88
2021/08/08 12:37:08;;;;;;;;;;;19.80;93.40;;;;;;5056755;28;19952;-88
2021/08/08 12:39:34;;;;;;;;;;;19.90;92.30;;;;;;5054671;28;19909;-88
2021/08/08 12:42:02;;;;;;;;;;;20.00;91.60;;;;;;5055648;28;19909;-89
2021/08/08 12:44:34;;;;;;;;;;;20.10;91.50;;;;;;5055268;28;19909;-89
2021/08/08 12:47:04;;;;;;;;;;;20.20;90.60;;;;;;5054939;28;20340;-89
2021/08/08 12:49:37;;;;;;;;;;;20.30;90.30;;;;;;5055663;28;20436;-88
2021/08/08 12:52:04;;;;;;;;;;;20.40;89.60;;;;;;5055158;28;19909;-88
2021/08/08 12:54:29;;;;;;;;;;;20.50;89.40;;;;;;5055040;28;20141;-88
2021/08/08 12:56:58;;;;;;;;;;;20.60;85.80;;;;;;5055029;28;19909;-88
2021/08/08 12:59:23;;;;;;;;;;;20.70;83.70;;;;;;5054741;28;19913;-88
2021/08/08 13:01:49;;;;;;;;;;;20.70;84.00;;;;;;5055142;28;19940;-88
2021/08/08 13:04:14;;;;;;;;;;;20.60;84.70;;;;;;5055237;28;19909;-88
2021/08/08 13:06:40;;;;;;;;;;;20.70;84.30;;;;;;5054782;28;19920;-89
2021/08/08 13:09:05;;;;;;;;;;;20.70;83.60;;;;;;5054299;28;20389;-88
2021/08/08 13:11:31;;;;;;;;;;;20.80;83.70;;;;;;5056095;28;19913;-88
2021/08/08 13:13:56;;;;;;;;;;;20.80;83.70;;;;;;5055318;28;19917;-89
2021/08/08 13:16:22;;;;;;;;;;;20.80;82.30;;;;;;5056056;28;19909;-88
2021/08/08 13:18:47;;;;;;;;;;;20.80;82.90;;;;;;5070875;28;19909;-88
2021/08/08 13:21:13;;;;;;;;;;;20.80;82.50;;;;;;5054195;28;19912;-89
2021/08/08 13:23:40;;;;;;;;;;;20.90;82.00;;;;;;5054636;28;19935;-88
2021/08/08 13:26:05;;;;;;;;;;;20.80;82.60;;;;;;5054740;28;19955;-88
2021/08/08 13:28:31;;;;;;;;;;;20.70;82.20;;;;;;5055172;28;19916;-89
2021/08/08 13:30:57;;;;;;;;;;;20.60;83.20;;;;;;5054957;28;19999;-88
2021/08/08 13:33:23;;;;;;;;;;;20.60;84.40;;;;;;5054079;28;20039;-88
2021/08/08 13:35:48;;;;;;;;;;;20.50;85.20;;;;;;5054228;28;20328;-90
2021/08/08 13:38:14;;;;;;;;;;;20.40;85.80;;;;;;5054240;28;19959;-88
2021/08/08 13:40:40;;;;;;;;;;;20.40;86.40;;;;;;5053631;28;19909;-89
2021/08/08 13:43:06;;;;;;;;;;;20.50;87.30;;;;;;5053944;28;19913;-89
2021/08/08 13:45:31;;;;;;;;;;;20.50;88.30;;;;;;5054793;28;19970;-88
2021/08/08 13:47:57;;;;;;;;;;;20.60;88.60;;;;;;5053661;28;19909;-88
2021/08/08 13:50:22;;;;;;;;;;;20.60;88.60;;;;;;5053573;28;20442;-89
2021/08/08 13:52:48;;;;;;;;;;;20.70;87.60;;;;;;5053780;28;19909;-88
2021/08/08 13:55:17;;;;;;;;;;;20.70;87.80;;;;;;5054005;28;19909;-88
2021/08/08 13:57:43;;;;;;;;;;;20.60;88.20;;;;;;5054169;28;20263;-88
2021/08/08 14:00:09;;;;;;;;;;;20.50;85.60;;;;;;5054571;28;19958;-88
2021/08/08 14:02:35;;;;;;;;;;;20.50;85.70;;;;;;5053478;28;20290;-88
2021/08/08 14:05:01;;;;;;;;;;;20.50;86.30;;;;;;5054109;28;19955;-89
2021/08/08 14:07:26;;;;;;;;;;;20.40;87.90;;;;;;5053226;28;19951;-89
2021/08/08 14:09:53;;;;;;;;;;;20.40;88.10;;;;;;5053041;28;19915;-89
2021/08/08 14:12:19;;;;;;;;;;;20.50;87.40;;;;;;5052054;28;19909;-89
2021/08/08 14:14:44;;;;;;;;;;;20.70;86.80;;;;;;5052073;28;20377;-88